Time;durP1;ratioP1;P1;durP2;ratioP2;P2;SDS_P1;SDS_P2;PMS_P1;PMS_P2;Temp;Humidity;BMP_temperature;BMP_pressure;BME280_temperature;BME280_humidity;BME280_pressure;Samples;Min_cycle;Max_cycle;Signal;HPM_P1;HPM_P2
2024/01/26 00:00:06;;;;;;;;;10.67;9.33;;;;;;;;5018837;28;46311;-64
2024/01/26 00:02:32;;;;;;;;;7.75;6.75;;;;;;;;5018904;28;45815;-64
2024/01/26 00:04:57;;;;;;;;;9.00;8.00;;;;;;;;5019002;28;45325;-64
2024/01/26 00:07:22;;;;;;;;;7.00;7.00;;;;;;;;5018719;28;45356;-64
2024/01/26 00:09:47;;;;;;;;;7.67;6.67;;;;;;;;5017822;28;46693;-64
2024/01/26 00:12:13;;;;;;;;;7.33;6.00;;;;;;;;5018345;28;45567;-64
2024/01/26 00:14:38;;;;;;;;;10.25;8.25;;;;;;;;5009786;28;45468;-64
2024/01/26 00:17:03;;;;;;;;;5.67;5.67;;;;;;;;5014566;28;45381;-64
2024/01/26 00:19:28;;;;;;;;;8.67;8.00;;;;;;;;5018372;28;46157;-64
2024/01/26 00:21:54;;;;;;;;;7.33;7.00;;;;;;;;5013955;28;45344;-64
2024/01/26 00:24:19;;;;;;;;;7.75;7.50;;;;;;;;5018877;28;45403;-64
2024/01/26 00:26:45;;;;;;;;;10.33;10.00;;;;;;;;5018548;28;45324;-64
2024/01/26 00:29:11;;;;;;;;;7.00;7.00;;;;;;;;5010704;28;45380;-64
2024/01/26 00:31:36;;;;;;;;;7.67;7.67;;;;;;;;5013676;28;45778;-64
2024/01/26 00:34:01;;;;;;;;;10.00;9.00;;;;;;;;5016233;28;45470;-64
2024/01/26 00:36:26;;;;;;;;;7.67;7.67;;;;;;;;5002866;28;45512;-64
2024/01/26 00:38:51;;;;;;;;;9.00;8.00;;;;;;;;5018620;28;45569;-64
2024/01/26 00:41:17;;;;;;;;;8.00;8.00;;;;;;;;5018267;28;45604;-64
2024/01/26 00:43:42;;;;;;;;;9.33;9.33;;;;;;;;5018783;28;45309;-64
2024/01/26 00:46:07;;;;;;;;;10.00;10.00;;;;;;;;5018125;28;45475;-64
2024/01/26 00:48:32;;;;;;;;;10.00;10.00;;;;;;;;5000339;28;47426;-64
2024/01/26 00:50:57;;;;;;;;;10.67;9.33;;;;;;;;5018279;28;45297;-64
2024/01/26 00:53:23;;;;;;;;;8.33;8.00;;;;;;;;5018562;28;45241;-64
2024/01/26 00:55:48;;;;;;;;;9.00;9.00;;;;;;;;5018388;28;45245;-64
2024/01/26 00:58:14;;;;;;;;;9.50;8.25;;;;;;;;5000357;28;46881;-64
2024/01/26 01:00:39;;;;;;;;;13.25;12.75;;;;;;;;5018044;28;45403;-64
2024/01/26 01:03:04;;;;;;;;;11.75;11.25;;;;;;;;5003930;28;45688;-64
2024/01/26 01:05:29;;;;;;;;;9.33;9.33;;;;;;;;5017960;28;45472;-64
2024/01/26 01:07:55;;;;;;;;;9.50;9.00;;;;;;;;5021580;28;46335;-64
2024/01/26 01:10:21;;;;;;;;;12.25;10.25;;;;;;;;5021758;28;45602;-64
2024/01/26 01:12:46;;;;;;;;;13.75;11.25;;;;;;;;5002008;28;45467;-64
2024/01/26 01:15:11;;;;;;;;;11.67;11.67;;;;;;;;5000192;28;45553;-64
2024/01/26 01:17:43;;;;;;;;;15.67;13.67;;;;;;;;5021242;28;46300;-64
2024/01/26 01:20:10;;;;;;;;;11.75;10.25;;;;;;;;5021424;28;45518;-64
2024/01/26 01:22:38;;;;;;;;;13.00;11.25;;;;;;;;5021719;28;45454;-64
2024/01/26 01:25:06;;;;;;;;;12.50;10.25;;;;;;;;5021430;28;45392;-64
2024/01/26 01:27:32;;;;;;;;;10.25;7.50;;;;;;;;5003351;28;47499;-64
2024/01/26 01:29:58;;;;;;;;;9.25;9.25;;;;;;;;5021260;28;45340;-64
2024/01/26 01:32:23;;;;;;;;;11.25;9.25;;;;;;;;5021604;28;45234;-64
2024/01/26 01:34:48;;;;;;;;;13.67;13.00;;;;;;;;5003084;28;45438;-64
2024/01/26 01:37:13;;;;;;;;;13.67;12.67;;;;;;;;5002392;28;48451;-64
2024/01/26 01:39:39;;;;;;;;;10.33;8.33;;;;;;;;5003322;28;45551;-64
2024/01/26 01:42:04;;;;;;;;;13.67;11.67;;;;;;;;5002123;28;45389;-64
2024/01/26 01:44:30;;;;;;;;;10.75;10.50;;;;;;;;5002758;28;45603;-64
2024/01/26 01:46:55;;;;;;;;;13.25;11.25;;;;;;;;5003178;28;47067;-64
2024/01/26 01:49:22;;;;;;;;;13.00;10.00;;;;;;;;5020814;28;45566;-64
2024/01/26 01:51:49;;;;;;;;;13.50;13.25;;;;;;;;5021240;28;45371;-64
2024/01/26 01:54:15;;;;;;;;;15.00;12.25;;;;;;;;5020837;28;45481;-64
2024/01/26 01:56:43;;;;;;;;;9.50;8.00;;;;;;;;5002812;28;48613;-64
2024/01/26 01:59:09;;;;;;;;;10.75;9.75;;;;;;;;5020798;28;45559;-64
2024/01/26 02:01:34;;;;;;;;;12.50;10.75;;;;;;;;5003108;28;45461;-64
2024/01/26 02:04:02;;;;;;;;;14.25;13.25;;;;;;;;5012312;28;45408;-64
2024/01/26 02:06:27;;;;;;;;;10.25;8.00;;;;;;;;5020525;28;46064;-64
2024/01/26 02:08:53;;;;;;;;;10.00;10.00;;;;;;;;5002671;28;45509;-64
2024/01/26 02:11:18;;;;;;;;;9.75;9.00;;;;;;;;5019497;28;45564;-64
2024/01/26 02:13:43;;;;;;;;;11.33;10.00;;;;;;;;5016831;28;45460;-64
2024/01/26 02:16:08;;;;;;;;;9.00;8.00;;;;;;;;5008654;28;45506;-64
2024/01/26 02:18:33;;;;;;;;;13.67;12.67;;;;;;;;5014509;28;46175;-64
2024/01/26 02:20:58;;;;;;;;;14.25;11.50;;;;;;;;5020486;28;45411;-64
2024/01/26 02:23:24;;;;;;;;;10.67;9.00;;;;;;;;5020572;28;45509;-64
2024/01/26 02:25:49;;;;;;;;;9.00;9.00;;;;;;;;5020503;28;45362;-64
2024/01/26 02:28:14;;;;;;;;;12.50;12.50;;;;;;;;5002280;28;45355;-64
2024/01/26 02:30:40;;;;;;;;;14.33;13.33;;;;;;;;5010788;28;45441;-64
2024/01/26 02:33:05;;;;;;;;;10.50;10.00;;;;;;;;5025318;28;45545;-64
2024/01/26 02:35:30;;;;;;;;;0.33;0.00;;;;;;;;5011484;28;47021;-64
2024/01/26 02:37:56;;;;;;;;;12.33;12.33;;;;;;;;5020013;28;45275;-64
2024/01/26 02:40:21;;;;;;;;;9.00;8.75;;;;;;;;5020528;28;45339;-64
2024/01/26 02:42:46;;;;;;;;;10.00;10.00;;;;;;;;5019082;28;45300;-64
2024/01/26 02:45:11;;;;;;;;;9.00;9.00;;;;;;;;5019882;28;46334;-64
2024/01/26 02:47:36;;;;;;;;;10.00;10.00;;;;;;;;5019775;28;45469;-64
2024/01/26 02:50:02;;;;;;;;;10.00;9.25;;;;;;;;5018549;28;45602;-64
2024/01/26 02:52:27;;;;;;;;;9.50;9.50;;;;;;;;5020062;28;45507;-64
2024/01/26 02:54:52;;;;;;;;;14.00;12.33;;;;;;;;5028031;28;46349;-64
2024/01/26 02:57:17;;;;;;;;;10.33;9.67;;;;;;;;5025090;28;45553;-64
2024/01/26 02:59:43;;;;;;;;;10.67;8.00;;;;;;;;5019984;28;45383;-64
2024/01/26 03:02:08;;;;;;;;;9.00;9.00;;;;;;;;5020011;28;45492;-64
2024/01/26 03:04:33;;;;;;;;;10.00;9.33;;;;;;;;5019397;28;45467;-64
2024/01/26 03:06:59;;;;;;;;;8.50;8.25;;;;;;;;5019517;28;45435;-64
2024/01/26 03:09:24;;;;;;;;;14.33;12.33;;;;;;;;5020125;28;45643;-64
2024/01/26 03:11:49;;;;;;;;;9.67;9.67;;;;;;;;5018674;28;45408;-64
2024/01/26 03:14:15;;;;;;;;;9.33;8.67;;;;;;;;4997652;28;47681;-64
2024/01/26 03:16:40;;;;;;;;;10.00;9.25;;;;;;;;5012064;28;45869;-64
2024/01/26 03:19:07;;;;;;;;;10.67;10.00;;;;;;;;5019732;28;45649;-64
2024/01/26 03:21:32;;;;;;;;;12.75;11.75;;;;;;;;5019559;28;45379;-64
2024/01/26 03:23:57;;;;;;;;;10.33;10.33;;;;;;;;5019482;28;45447;-64
2024/01/26 03:26:23;;;;;;;;;10.33;9.33;;;;;;;;5019538;28;45579;-64
2024/01/26 03:28:48;;;;;;;;;15.75;11.75;;;;;;;;5010986;28;45419;-64
2024/01/26 03:31:13;;;;;;;;;13.00;11.25;;;;;;;;5013827;28;45469;-64
2024/01/26 03:33:39;;;;;;;;;10.67;9.00;;;;;;;;5019774;28;45386;-64
2024/01/26 03:36:05;;;;;;;;;12.00;12.00;;;;;;;;5018990;28;45796;-64
2024/01/26 03:38:30;;;;;;;;;10.00;8.00;;;;;;;;5019552;28;45383;-64
2024/01/26 03:40:55;;;;;;;;;13.00;11.00;;;;;;;;5018751;28;45301;-64
2024/01/26 03:43:20;;;;;;;;;16.00;11.00;;;;;;;;5018807;28;45377;-64
2024/01/26 03:45:46;;;;;;;;;9.50;9.25;;;;;;;;5019109;28;45390;-64
2024/01/26 03:48:11;;;;;;;;;10.00;9.33;;;;;;;;5013407;28;45450;-64
2024/01/26 03:50:36;;;;;;;;;9.33;9.00;;;;;;;;5019136;28;45632;-64
2024/01/26 03:53:01;;;;;;;;;14.00;10.00;;;;;;;;5019113;28;45563;-64
2024/01/26 03:55:26;;;;;;;;;12.67;11.33;;;;;;;;5019169;28;45470;-64
2024/01/26 03:57:52;;;;;;;;;9.00;8.00;;;;;;;;5019033;28;45684;-64
2024/01/26 04:00:17;;;;;;;;;14.67;12.67;;;;;;;;5018869;28;45693;-64
2024/01/26 04:02:42;;;;;;;;;12.50;9.25;;;;;;;;5018781;28;46434;-64
2024/01/26 04:05:08;;;;;;;;;8.33;8.33;;;;;;;;5018750;28;45334;-64
2024/01/26 04:07:34;;;;;;;;;8.75;5.50;;;;;;;;5019009;28;45362;-64
2024/01/26 04:09:59;;;;;;;;;10.00;7.75;;;;;;;;5018941;28;45241;-64
2024/01/26 04:12:24;;;;;;;;;8.67;8.00;;;;;;;;5017593;28;45365;-64
2024/01/26 04:14:50;;;;;;;;;9.00;9.00;;;;;;;;5007960;28;45352;-64
2024/01/26 04:17:15;;;;;;;;;14.67;9.67;;;;;;;;5016131;28;45515;-64
2024/01/26 04:19:40;;;;;;;;;8.25;8.00;;;;;;;;5018635;28;45707;-64
2024/01/26 04:22:06;;;;;;;;;13.50;9.25;;;;;;;;5018736;28;45544;-64
2024/01/26 04:24:31;;;;;;;;;1.75;1.75;;;;;;;;5018869;28;45369;-65
2024/01/26 04:26:56;;;;;;;;;10.00;10.00;;;;;;;;5018754;28;45403;-64
2024/01/26 04:29:22;;;;;;;;;13.00;9.00;;;;;;;;5018337;28;45664;-64
2024/01/26 04:31:47;;;;;;;;;10.00;10.00;;;;;;;;5018535;28;45494;-64
2024/01/26 04:34:12;;;;;;;;;13.00;9.25;;;;;;;;5017950;28;45512;-64
2024/01/26 04:36:37;;;;;;;;;8.75;7.00;;;;;;;;5018224;28;45477;-64
2024/01/26 04:39:03;;;;;;;;;10.00;9.00;;;;;;;;5018801;28;45317;-64
2024/01/26 04:41:28;;;;;;;;;10.33;9.00;;;;;;;;5019228;28;45488;-64
2024/01/26 04:43:55;;;;;;;;;11.25;9.25;;;;;;;;5020921;28;45670;-64
2024/01/26 04:46:20;;;;;;;;;11.25;7.75;;;;;;;;5007730;28;45528;-65
2024/01/26 04:48:45;;;;;;;;;11.33;9.33;;;;;;;;5030131;28;45450;-64
2024/01/26 04:51:10;;;;;;;;;13.33;9.33;;;;;;;;5021624;28;45503;-64
2024/01/26 04:53:36;;;;;;;;;10.00;8.25;;;;;;;;5021884;28;45357;-64
2024/01/26 04:56:01;;;;;;;;;10.67;9.67;;;;;;;;5021752;28;45375;-64
2024/01/26 04:58:26;;;;;;;;;9.75;9.75;;;;;;;;5021971;28;45301;-64
2024/01/26 05:00:52;;;;;;;;;12.00;10.00;;;;;;;;5021443;28;45377;-64
2024/01/26 05:03:18;;;;;;;;;12.50;11.00;;;;;;;;5022052;28;45505;-64
2024/01/26 05:05:44;;;;;;;;;9.00;9.00;;;;;;;;5021336;28;45493;-64
2024/01/26 05:08:09;;;;;;;;;11.00;9.50;;;;;;;;5021964;28;45486;-64
2024/01/26 05:10:34;;;;;;;;;9.00;9.00;;;;;;;;5020626;28;46397;-64
2024/01/26 05:12:59;;;;;;;;;11.67;8.67;;;;;;;;5021247;28;45440;-64
2024/01/26 05:15:25;;;;;;;;;7.00;6.00;;;;;;;;4990211;28;45382;-64
2024/01/26 05:17:50;;;;;;;;;9.00;8.50;;;;;;;;5021470;28;45328;-64
2024/01/26 05:20:15;;;;;;;;;8.50;7.25;;;;;;;;5021265;28;45642;-64
2024/01/26 05:22:40;;;;;;;;;8.00;7.67;;;;;;;;5021695;28;45305;-64
2024/01/26 05:25:06;;;;;;;;;10.33;8.67;;;;;;;;5021449;28;45624;-64
2024/01/26 05:27:31;;;;;;;;;8.50;8.50;;;;;;;;5018037;28;45431;-64
2024/01/26 05:29:56;;;;;;;;;8.00;8.00;;;;;;;;5016318;28;46417;-64
2024/01/26 05:32:22;;;;;;;;;10.00;8.33;;;;;;;;5021374;28;45387;-64
2024/01/26 05:34:47;;;;;;;;;10.00;9.00;;;;;;;;5020642;28;45454;-64
2024/01/26 05:37:12;;;;;;;;;9.25;9.25;;;;;;;;5003028;28;45722;-64
2024/01/26 05:39:38;;;;;;;;;10.00;8.00;;;;;;;;5016524;28;47314;-64
2024/01/26 05:42:03;;;;;;;;;11.00;9.67;;;;;;;;5019602;28;45512;-64
2024/01/26 05:44:28;;;;;;;;;10.25;8.25;;;;;;;;5020935;28;45397;-64
2024/01/26 05:46:53;;;;;;;;;8.67;7.33;;;;;;;;5021055;28;45777;-64
2024/01/26 05:49:19;;;;;;;;;12.00;10.33;;;;;;;;5020875;28;46166;-64
2024/01/26 05:51:44;;;;;;;;;11.00;9.25;;;;;;;;5019757;28;45455;-64
2024/01/26 05:54:10;;;;;;;;;9.00;7.25;;;;;;;;5021164;28;45486;-64
2024/01/26 05:56:38;;;;;;;;;9.50;7.75;;;;;;;;5020893;28;45450;-64
2024/01/26 05:59:03;;;;;;;;;8.00;8.00;;;;;;;;5020931;28;45722;-64
2024/01/26 06:01:29;;;;;;;;;9.67;9.67;;;;;;;;5020738;28;45523;-64
2024/01/26 06:03:54;;;;;;;;;9.00;8.00;;;;;;;;5028946;28;45376;-64
2024/01/26 06:06:19;;;;;;;;;9.00;9.00;;;;;;;;5020742;28;45292;-64
2024/01/26 06:08:45;;;;;;;;;8.75;7.25;;;;;;;;5020528;28;46039;-64
2024/01/26 06:11:10;;;;;;;;;12.33;10.33;;;;;;;;5002097;28;45285;-64
2024/01/26 06:13:35;;;;;;;;;9.33;9.33;;;;;;;;5019929;28;45296;-64
2024/01/26 06:16:00;;;;;;;;;8.50;8.50;;;;;;;;5007614;28;45449;-64
2024/01/26 06:18:26;;;;;;;;;11.00;8.33;;;;;;;;5020595;28;45457;-64
2024/01/26 06:20:51;;;;;;;;;7.00;7.00;;;;;;;;5020704;28;45459;-64
2024/01/26 06:23:16;;;;;;;;;12.50;8.75;;;;;;;;5019420;28;45522;-64
2024/01/26 06:25:41;;;;;;;;;8.00;7.00;;;;;;;;5020569;28;45606;-64
2024/01/26 06:28:06;;;;;;;;;8.67;7.33;;;;;;;;5012530;28;46188;-64
2024/01/26 06:30:32;;;;;;;;;9.00;7.00;;;;;;;;5020401;28;45465;-64
2024/01/26 06:32:57;;;;;;;;;9.00;9.00;;;;;;;;5020129;28;45359;-64
2024/01/26 06:35:22;;;;;;;;;5.00;4.00;;;;;;;;5020344;28;45654;-64
2024/01/26 06:37:47;;;;;;;;;9.75;8.75;;;;;;;;5019891;28;46233;-64
2024/01/26 06:40:13;;;;;;;;;9.25;7.00;;;;;;;;5020191;28;45454;-64
2024/01/26 06:42:38;;;;;;;;;9.75;9.00;;;;;;;;5002382;28;45423;-64
2024/01/26 06:45:04;;;;;;;;;6.25;4.25;;;;;;;;5020128;28;45392;-64
2024/01/26 06:47:29;;;;;;;;;9.50;8.50;;;;;;;;5019955;28;45987;-64
2024/01/26 06:49:54;;;;;;;;;8.00;7.25;;;;;;;;5009840;28;45614;-64
2024/01/26 06:52:20;;;;;;;;;10.00;8.00;;;;;;;;5025149;28;45408;-64
2024/01/26 06:54:45;;;;;;;;;8.67;7.67;;;;;;;;5018685;28;45468;-64
2024/01/26 06:57:10;;;;;;;;;7.00;7.00;;;;;;;;5019881;28;45454;-65
2024/01/26 06:59:41;;;;;;;;;14.33;12.33;;;;;;;;5019893;28;45368;-70
2024/01/26 07:02:16;;;;;;;;;;;;;;;;;;;;;
2024/01/26 07:04:45;;;;;;;;;10.00;9.75;;;;;;;;5017145;28;72850;-71
2024/01/26 07:07:10;;;;;;;;;11.25;9.25;;;;;;;;5019435;28;46634;-71
2024/01/26 07:09:36;;;;;;;;;9.00;8.50;;;;;;;;5022657;28;45490;-71
2024/01/26 07:12:10;;;;;;;;;8.50;8.50;;;;;;;;5019026;28;45474;-72
2024/01/26 07:14:35;;;;;;;;;7.25;7.25;;;;;;;;5009785;28;45415;-71
2024/01/26 07:57:40;;;;;;;;;3.00;3.00;;;;;;;;5837559;23;47097;-66
2024/01/26 08:00:08;;;;;;;;;6.00;6.00;;;;;;;;4952499;28;45448;-65
2024/01/26 08:02:33;;;;;;;;;6.75;6.00;;;;;;;;4932610;28;46941;-66
2024/01/26 08:04:59;;;;;;;;;8.00;6.67;;;;;;;;4959216;28;47026;-66
2024/01/26 08:07:24;;;;;;;;;6.00;6.00;;;;;;;;4942256;28;45372;-66
2024/01/26 08:09:49;;;;;;;;;6.33;5.67;;;;;;;;4959456;28;45291;-65
2024/01/26 08:12:15;;;;;;;;;5.00;5.00;;;;;;;;4957741;28;45305;-65
2024/01/26 08:14:40;;;;;;;;;6.25;6.25;;;;;;;;4953946;28;45347;-65
2024/01/26 08:17:05;;;;;;;;;6.00;6.00;;;;;;;;4954552;28;45425;-65
2024/01/26 08:19:30;;;;;;;;;7.00;6.00;;;;;;;;4951585;28;45238;-66
2024/01/26 08:21:55;;;;;;;;;5.67;5.67;;;;;;;;4951754;28;46153;-65
2024/01/26 08:24:21;;;;;;;;;7.00;6.00;;;;;;;;4954936;28;45590;-65
2024/01/26 08:26:46;;;;;;;;;9.50;6.50;;;;;;;;4958170;28;45580;-66
2024/01/26 08:29:12;;;;;;;;;4.33;3.67;;;;;;;;4954466;28;45473;-65
2024/01/26 08:31:37;;;;;;;;;4.00;4.00;;;;;;;;4954167;28;45656;-65
2024/01/26 08:34:02;;;;;;;;;3.33;3.33;;;;;;;;4952084;28;45342;-65
2024/01/26 08:36:28;;;;;;;;;5.33;4.00;;;;;;;;4959375;28;45466;-66
2024/01/26 08:38:54;;;;;;;;;4.00;4.00;;;;;;;;4957879;28;45357;-66
2024/01/26 08:41:20;;;;;;;;;4.75;4.00;;;;;;;;4960672;28;46136;-66
2024/01/26 08:43:45;;;;;;;;;4.75;4.75;;;;;;;;4964162;28;45507;-66
2024/01/26 08:46:13;;;;;;;;;4.25;4.25;;;;;;;;4957751;28;45521;-66
2024/01/26 08:51:36;;;;;;;;;3.25;3.25;;;;;;;;4954809;28;46611;-66
2024/01/26 08:54:05;;;;;;;;;3.50;3.50;;;;;;;;4937771;28;45378;-66
2024/01/26 08:56:40;;;;;;;;;3.50;3.50;;;;;;;;4935029;28;45833;-67
2024/01/26 08:59:07;;;;;;;;;3.75;2.75;;;;;;;;4933854;28;45841;-67
2024/01/26 09:01:32;;;;;;;;;1.25;1.25;;;;;;;;4938931;28;46759;-66
2024/01/26 09:04:00;;;;;;;;;3.00;3.00;;;;;;;;4938996;28;45480;-66
2024/01/26 09:06:28;;;;;;;;;2.25;1.75;;;;;;;;4942754;28;45378;-66
2024/01/26 09:08:53;;;;;;;;;4.00;2.75;;;;;;;;4954619;28;45483;-66
2024/01/26 09:11:19;;;;;;;;;4.00;3.00;;;;;;;;4957443;28;45596;-66
2024/01/26 09:13:50;;;;;;;;;3.25;2.75;;;;;;;;4939305;28;45450;-67
2024/01/26 09:16:37;;;;;;;;;3.00;1.75;;;;;;;;4957320;28;45472;-66
2024/01/26 09:19:08;;;;;;;;;4.00;2.25;;;;;;;;4955276;28;45721;-67
2024/01/26 09:21:52;;;;;;;;;;;;;;;;;;;;;
2024/01/26 09:24:21;;;;;;;;;2.00;2.00;;;;;;;;4951888;28;71995;-67
2024/01/26 09:26:56;;;;;;;;;;;;;;;;;;;;;
2024/01/26 09:29:22;;;;;;;;;2.00;1.00;;;;;;;;4958850;28;71744;-66
2024/01/26 09:32:39;;;;;;;;;;;;;;;;;;;;;
2024/01/26 09:35:14;;;;;;;;;2.00;2.00;;;;;;;;4906807;28;71763;-67
2024/01/26 09:37:49;;;;;;;;;2.00;1.50;;;;;;;;4900270;28;45779;-66
2024/01/26 09:40:35;;;;;;;;;1.00;1.00;;;;;;;;4899176;28;45925;-68
2024/01/26 09:53:57;;;;;;;;;2.75;1.75;;;;;;;;5117997;23;45942;-74
2024/01/26 09:56:22;;;;;;;;;1.00;1.00;;;;;;;;4980174;28;45565;-74
2024/01/26 09:58:48;;;;;;;;;1.25;1.25;;;;;;;;4982231;28;45655;-74
2024/01/26 10:01:16;;;;;;;;;1.25;1.25;;;;;;;;4981633;28;45389;-74
2024/01/26 10:03:41;;;;;;;;;2.00;0.75;;;;;;;;4999121;28;46199;-75
2024/01/26 10:06:09;;;;;;;;;1.00;1.00;;;;;;;;5002667;28;45291;-75
2024/01/26 10:08:40;;;;;;;;;0.00;0.00;;;;;;;;5003145;28;45335;-75
2024/01/26 10:11:05;;;;;;;;;1.00;1.00;;;;;;;;4992157;28;45535;-75
2024/01/26 10:13:31;;;;;;;;;1.00;1.00;;;;;;;;4989768;28;46664;-75
2024/01/26 10:16:06;;;;;;;;;0.00;0.00;;;;;;;;4998479;28;45422;-75
2024/01/26 10:18:38;;;;;;;;;2.25;1.00;;;;;;;;4995435;28;45588;-75
2024/01/26 10:21:03;;;;;;;;;0.00;0.00;;;;;;;;4978386;28;45574;-75
2024/01/26 10:23:29;;;;;;;;;1.00;0.00;;;;;;;;5003719;28;45555;-75
2024/01/26 10:25:54;;;;;;;;;0.00;0.00;;;;;;;;5001606;28;45416;-75
2024/01/26 10:28:19;;;;;;;;;0.33;0.33;;;;;;;;4978530;28;45304;-75
2024/01/26 10:30:44;;;;;;;;;1.00;0.00;;;;;;;;4993062;28;45317;-75
2024/01/26 10:33:11;;;;;;;;;4.00;0.00;;;;;;;;4991734;28;45506;-75
2024/01/26 10:35:37;;;;;;;;;0.00;0.00;;;;;;;;4999815;28;45551;-75
2024/01/26 10:38:02;;;;;;;;;0.00;0.00;;;;;;;;4979556;28;45784;-73
2024/01/26 10:40:28;;;;;;;;;1.00;0.00;;;;;;;;4994198;28;45873;-76
2024/01/26 10:42:55;;;;;;;;;1.75;0.00;;;;;;;;4993373;28;46335;-76
2024/01/26 10:45:21;;;;;;;;;0.50;0.00;;;;;;;;4995167;28;45723;-78
2024/01/26 10:47:47;;;;;;;;;1.00;1.00;;;;;;;;4995851;28;45471;-77
2024/01/26 10:50:12;;;;;;;;;1.00;1.00;;;;;;;;4999893;28;46185;-76
2024/01/26 10:52:38;;;;;;;;;0.00;0.00;;;;;;;;4977860;28;48246;-76
2024/01/26 10:55:04;;;;;;;;;2.00;0.00;;;;;;;;4983231;28;45369;-76
2024/01/26 10:57:30;;;;;;;;;0.00;0.00;;;;;;;;4993089;28;45515;-76
2024/01/26 10:59:55;;;;;;;;;0.50;0.50;;;;;;;;4976483;28;45506;-77
2024/01/26 11:02:24;;;;;;;;;0.67;0.67;;;;;;;;5002061;28;46207;-77
2024/01/26 11:04:49;;;;;;;;;0.00;0.00;;;;;;;;5000892;28;45451;-76
2024/01/26 11:07:17;;;;;;;;;0.00;0.00;;;;;;;;4994760;28;45475;-77
2024/01/26 11:09:46;;;;;;;;;0.00;0.00;;;;;;;;4990276;28;45568;-73
2024/01/26 11:12:18;;;;;;;;;1.50;1.00;;;;;;;;4975179;28;47711;-77
2024/01/26 11:14:44;;;;;;;;;3.25;1.00;;;;;;;;4993025;28;45400;-77
2024/01/26 11:17:09;;;;;;;;;1.00;1.00;;;;;;;;4992171;28;45312;-76
2024/01/26 11:19:35;;;;;;;;;0.00;0.00;;;;;;;;5001084;28;45543;-76
2024/01/26 11:22:02;;;;;;;;;0.00;0.00;;;;;;;;4999319;28;45475;-76
2024/01/26 11:24:31;;;;;;;;;2.00;1.00;;;;;;;;4999939;28;45689;-76
2024/01/26 11:27:01;;;;;;;;;1.25;1.00;;;;;;;;5001104;28;45310;-76
2024/01/26 11:29:34;;;;;;;;;1.00;0.75;;;;;;;;4994356;28;45641;-75
2024/01/26 11:31:59;;;;;;;;;2.25;1.00;;;;;;;;4999444;28;45972;-76
2024/01/26 11:34:25;;;;;;;;;1.75;1.00;;;;;;;;5002483;28;45386;-76
2024/01/26 11:37:08;;;;;;;;;1.75;1.50;;;;;;;;5001959;28;45385;-76
2024/01/26 11:39:33;;;;;;;;;1.00;0.25;;;;;;;;4989830;28;45430;-76
2024/01/26 11:41:59;;;;;;;;;3.25;1.00;;;;;;;;5001620;28;45991;-76
2024/01/26 11:44:29;;;;;;;;;3.33;2.00;;;;;;;;4997865;28;45416;-76
2024/01/26 11:46:55;;;;;;;;;2.75;2.00;;;;;;;;4974881;28;45249;-76
2024/01/26 11:49:20;;;;;;;;;2.75;1.00;;;;;;;;5000046;28;45507;-76
2024/01/26 11:51:45;;;;;;;;;2.67;1.67;;;;;;;;4997215;28;45484;-76
2024/01/26 11:54:10;;;;;;;;;1.00;1.00;;;;;;;;4998972;28;45425;-76
2024/01/26 11:56:36;;;;;;;;;2.00;1.00;;;;;;;;5001393;28;45419;-76
2024/01/26 11:59:01;;;;;;;;;2.25;1.00;;;;;;;;4982478;28;45409;-76
2024/01/26 12:01:26;;;;;;;;;3.00;1.00;;;;;;;;5001056;28;46150;-76
2024/01/26 12:03:52;;;;;;;;;2.00;1.00;;;;;;;;4998332;28;45229;-76
2024/01/26 12:06:17;;;;;;;;;2.00;1.00;;;;;;;;5000313;28;45519;-76
2024/01/26 12:08:42;;;;;;;;;2.50;0.00;;;;;;;;5001169;28;45379;-76
2024/01/26 12:11:09;;;;;;;;;3.25;1.75;;;;;;;;4996499;28;45911;-76
2024/01/26 12:13:34;;;;;;;;;0.00;0.00;;;;;;;;5000911;28;45744;-76
2024/01/26 12:16:00;;;;;;;;;2.00;0.25;;;;;;;;4992655;28;45245;-76
2024/01/26 12:18:25;;;;;;;;;2.00;0.33;;;;;;;;4997537;28;45454;-76
2024/01/26 12:20:50;;;;;;;;;1.00;0.67;;;;;;;;4999901;28;45408;-76
2024/01/26 12:23:19;;;;;;;;;2.00;1.00;;;;;;;;4988481;28;45293;-76
2024/01/26 12:25:44;;;;;;;;;3.75;1.00;;;;;;;;4978344;28;45302;-76
2024/01/26 12:28:10;;;;;;;;;0.00;0.00;;;;;;;;4998762;28;45333;-76
2024/01/26 12:30:35;;;;;;;;;2.00;0.50;;;;;;;;5001506;28;46249;-75
2024/01/26 12:33:07;;;;;;;;;2.00;1.00;;;;;;;;4999564;28;45565;-75
2024/01/26 12:35:33;;;;;;;;;0.75;0.75;;;;;;;;5002428;28;45300;-76
2024/01/26 12:37:58;;;;;;;;;1.75;1.00;;;;;;;;5002131;28;45571;-76
2024/01/26 12:40:23;;;;;;;;;2.33;1.33;;;;;;;;5000993;28;45777;-76
2024/01/26 12:42:49;;;;;;;;;2.00;0.00;;;;;;;;4993042;28;45315;-75
2024/01/26 12:45:14;;;;;;;;;0.00;0.00;;;;;;;;4978589;28;45500;-75
2024/01/26 12:47:39;;;;;;;;;0.00;0.00;;;;;;;;4999178;28;45542;-75
2024/01/26 12:50:05;;;;;;;;;3.00;0.67;;;;;;;;4990429;28;45352;-75
2024/01/26 12:52:30;;;;;;;;;1.25;0.00;;;;;;;;4994824;28;46345;-76
2024/01/26 12:54:55;;;;;;;;;2.00;0.00;;;;;;;;4998018;28;46393;-75
2024/01/26 12:57:20;;;;;;;;;2.00;0.00;;;;;;;;4996118;28;45344;-76
2024/01/26 12:59:45;;;;;;;;;0.00;0.00;;;;;;;;4992686;28;45718;-75
2024/01/26 13:02:10;;;;;;;;;0.00;0.00;;;;;;;;4997464;28;45388;-76
2024/01/26 13:04:36;;;;;;;;;1.00;0.00;;;;;;;;4986500;28;45481;-75
2024/01/26 13:07:01;;;;;;;;;0.00;0.00;;;;;;;;5002058;28;45458;-75
2024/01/26 13:09:27;;;;;;;;;0.25;0.25;;;;;;;;4983602;28;45416;-75
2024/01/26 13:11:54;;;;;;;;;1.00;0.00;;;;;;;;4998073;28;45570;-75
2024/01/26 13:14:19;;;;;;;;;0.00;0.00;;;;;;;;4998019;28;45530;-75
2024/01/26 13:16:44;;;;;;;;;0.00;0.00;;;;;;;;4995818;28;45438;-76
2024/01/26 13:19:09;;;;;;;;;0.00;0.00;;;;;;;;4998695;28;45753;-76
2024/01/26 13:21:35;;;;;;;;;0.00;0.00;;;;;;;;4974386;28;45412;-76
2024/01/26 13:24:00;;;;;;;;;2.00;0.00;;;;;;;;5000106;28;45446;-76
2024/01/26 13:26:26;;;;;;;;;0.25;0.00;;;;;;;;5000261;28;45846;-76
2024/01/26 13:28:51;;;;;;;;;1.00;0.00;;;;;;;;4999890;28;45349;-76
2024/01/26 13:31:16;;;;;;;;;0.75;0.00;;;;;;;;4998764;28;45371;-76
2024/01/26 13:33:42;;;;;;;;;0.00;0.00;;;;;;;;4995166;28;45345;-76
2024/01/26 13:36:07;;;;;;;;;0.00;0.00;;;;;;;;5000491;28;45559;-76
2024/01/26 13:38:32;;;;;;;;;0.00;0.00;;;;;;;;5008753;28;45498;-76
2024/01/26 13:40:58;;;;;;;;;0.00;0.00;;;;;;;;4994009;28;45463;-75
2024/01/26 13:43:26;;;;;;;;;0.00;0.00;;;;;;;;4993570;28;45659;-75
2024/01/26 13:45:54;;;;;;;;;2.00;0.00;;;;;;;;4994731;28;45353;-75
2024/01/26 13:48:19;;;;;;;;;0.00;0.00;;;;;;;;5001968;28;47226;-75
2024/01/26 13:50:45;;;;;;;;;1.00;0.00;;;;;;;;4985665;28;45415;-76
2024/01/26 13:53:10;;;;;;;;;0.00;0.00;;;;;;;;5000364;28;45415;-75
2024/01/26 13:55:35;;;;;;;;;0.00;0.00;;;;;;;;5000419;28;45589;-75
2024/01/26 13:58:00;;;;;;;;;0.67;0.00;;;;;;;;4999197;28;45703;-75
2024/01/26 14:00:25;;;;;;;;;0.00;0.00;;;;;;;;5001234;28;45386;-75
2024/01/26 14:02:51;;;;;;;;;0.00;0.00;;;;;;;;5001276;28;45376;-75
2024/01/26 14:05:16;;;;;;;;;0.00;0.00;;;;;;;;5003036;28;45831;-75
2024/01/26 14:07:41;;;;;;;;;0.00;0.00;;;;;;;;4984950;28;46209;-75
2024/01/26 14:10:06;;;;;;;;;1.33;0.00;;;;;;;;4985477;28;45412;-75
2024/01/26 14:12:31;;;;;;;;;0.00;0.00;;;;;;;;4998516;28;45549;-75
2024/01/26 14:14:57;;;;;;;;;0.33;0.33;;;;;;;;4998470;28;45479;-75
2024/01/26 14:17:22;;;;;;;;;0.33;0.00;;;;;;;;5000634;28;45322;-75
2024/01/26 14:19:48;;;;;;;;;0.00;0.00;;;;;;;;5002639;28;45305;-75
2024/01/26 14:22:13;;;;;;;;;0.50;0.00;;;;;;;;5002355;28;44751;-75
2024/01/26 14:24:39;;;;;;;;;1.75;0.00;;;;;;;;4989743;28;45369;-75
2024/01/26 14:27:04;;;;;;;;;0.00;0.00;;;;;;;;5001790;28;45425;-75
2024/01/26 14:29:29;;;;;;;;;0.00;0.00;;;;;;;;5001791;28;45902;-76
2024/01/26 14:31:55;;;;;;;;;0.67;0.00;;;;;;;;5001363;28;45490;-75
2024/01/26 14:34:25;;;;;;;;;0.00;0.00;;;;;;;;5001947;28;45276;-76
2024/01/26 14:36:52;;;;;;;;;1.00;0.00;;;;;;;;4999177;28;45275;-75
2024/01/26 14:39:18;;;;;;;;;1.00;0.00;;;;;;;;4980265;28;45554;-75
2024/01/26 14:41:43;;;;;;;;;2.67;0.00;;;;;;;;4999458;28;45301;-76
2024/01/26 14:44:08;;;;;;;;;2.33;0.00;;;;;;;;4982990;28;45372;-76
2024/01/26 14:46:33;;;;;;;;;0.00;0.00;;;;;;;;5000597;28;45697;-76
2024/01/26 14:49:00;;;;;;;;;0.50;0.00;;;;;;;;5001168;28;45414;-75
2024/01/26 14:51:25;;;;;;;;;0.75;0.00;;;;;;;;5000249;28;45750;-75
2024/01/26 14:53:50;;;;;;;;;0.00;0.00;;;;;;;;5001609;28;45310;-76
2024/01/26 14:56:15;;;;;;;;;1.00;0.00;;;;;;;;5002026;28;46023;-75
2024/01/26 14:58:40;;;;;;;;;2.00;0.00;;;;;;;;5001396;28;45680;-76
2024/01/26 15:01:06;;;;;;;;;0.00;0.00;;;;;;;;5000989;28;45252;-76
2024/01/26 15:03:33;;;;;;;;;0.00;0.00;;;;;;;;4999906;28;45237;-75
2024/01/26 15:05:58;;;;;;;;;1.00;1.00;;;;;;;;4998552;28;46192;-76
2024/01/26 15:08:23;;;;;;;;;2.50;0.00;;;;;;;;4998208;28;45357;-76
2024/01/26 15:10:49;;;;;;;;;1.00;0.00;;;;;;;;4995205;28;45530;-75
2024/01/26 15:13:15;;;;;;;;;0.00;0.00;;;;;;;;4979370;28;45682;-75
2024/01/26 15:15:40;;;;;;;;;1.00;0.00;;;;;;;;4999910;28;45641;-75
2024/01/26 15:18:07;;;;;;;;;2.00;0.00;;;;;;;;4981368;28;45566;-75
2024/01/26 15:20:32;;;;;;;;;0.25;0.25;;;;;;;;4989714;28;45414;-75
2024/01/26 15:22:57;;;;;;;;;0.00;0.00;;;;;;;;4998210;28;45302;-75
2024/01/26 15:25:22;;;;;;;;;0.00;0.00;;;;;;;;4994641;28;46179;-75
2024/01/26 15:27:48;;;;;;;;;0.00;0.00;;;;;;;;4995969;28;45360;-75